createdAt,value
2023-04-16T00:00:43.827Z,98617.88
2023-04-16T00:03:10.465Z,98615.84
2023-04-16T00:05:37.187Z,98619.59
2023-04-16T00:08:03.718Z,98615.56
2023-04-16T00:10:30.351Z,98618.78
2023-04-16T00:12:56.884Z,98619.88
2023-04-16T00:15:23.528Z,98623.63
2023-04-16T00:17:50.043Z,98618.56
2023-04-16T00:20:16.663Z,98624.94
2023-04-16T00:22:43.354Z,98623.56
2023-04-16T00:25:09.886Z,98624.81
2023-04-16T00:27:36.376Z,98625.28
2023-04-16T00:30:03.589Z,98621.47
2023-04-16T00:32:30.791Z,98623.81
2023-04-16T00:34:57.313Z,98625.31
2023-04-16T00:37:23.934Z,98629.34
2023-04-16T00:39:50.962Z,98628.88
2023-04-16T00:42:17.433Z,98626.56
2023-04-16T00:44:43.949Z,98622.97
2023-04-16T00:47:11.484Z,98619.22
2023-04-16T00:49:38.119Z,98619.63
2023-04-16T00:52:04.663Z,98618.38
2023-04-16T00:54:32.305Z,98620.28
2023-04-16T00:56:59.673Z,98606.91
2023-04-16T00:59:27.551Z,98617.06
2023-04-16T01:01:54.185Z,98618.13
2023-04-16T01:04:21.486Z,98626.84
2023-04-16T01:06:48.167Z,98624.38
2023-04-16T01:09:14.672Z,98627.69
2023-04-16T01:11:41.123Z,98628.81
2023-04-16T01:14:07.648Z,98622.41
2023-04-16T01:16:34.115Z,98630.41
2023-04-16T01:19:00.576Z,98637.56
2023-04-16T01:21:27.417Z,98641.19
2023-04-16T01:23:53.880Z,98637.19
2023-04-16T01:26:20.430Z,98646.09
2023-04-16T01:28:46.969Z,98640.06
2023-04-16T01:31:13.458Z,98641.56
2023-04-16T01:33:40.004Z,98645.31
2023-04-16T01:36:06.925Z,98643.47
2023-04-16T01:38:33.377Z,98653.34
2023-04-16T01:40:59.921Z,98648.84
2023-04-16T01:43:26.524Z,98656.44
2023-04-16T01:46:13.005Z,98652.38
2023-04-16T01:48:39.526Z,98653.31
2023-04-16T01:51:06.206Z,98656.16
2023-04-16T01:53:32.700Z,98656.88
2023-04-16T01:55:59.207Z,98657.06
2023-04-16T01:58:29.516Z,98659.88
2023-04-16T02:00:56.303Z,98660.66
2023-04-16T02:03:24.746Z,98664.41
2023-04-16T02:05:52.014Z,98666.75
2023-04-16T02:08:18.555Z,98660.94
2023-04-16T02:10:50.109Z,98665.63
2023-04-16T02:13:16.827Z,98655.88
2023-04-16T02:15:50.825Z,98665.91
2023-04-16T02:18:18.439Z,98665.00
2023-04-16T02:20:47.026Z,98665.53
2023-04-16T02:23:15.022Z,98654.81
2023-04-16T02:25:43.217Z,98661.56
2023-04-16T02:28:12.248Z,98657.28
2023-04-16T02:30:40.552Z,98662.44
2023-04-16T02:33:09.466Z,98659.88
2023-04-16T02:35:37.329Z,98664.41
2023-04-16T02:38:05.057Z,98663.44
2023-04-16T02:40:32.335Z,98665.34
2023-04-16T02:42:58.856Z,98663.84
2023-04-16T02:45:25.521Z,98658.31
2023-04-16T02:47:52.369Z,98652.00
2023-04-16T02:50:19.161Z,98648.38
2023-04-16T02:52:45.783Z,98650.72
2023-04-16T02:55:12.556Z,98652.03
2023-04-16T02:57:38.990Z,98661.41
2023-04-16T03:00:06.346Z,98654.53
2023-04-16T03:02:32.930Z,98655.19
2023-04-16T03:04:59.458Z,98654.28
2023-04-16T03:07:26.232Z,98651.06
2023-04-16T03:09:52.724Z,98644.84
2023-04-16T03:12:19.283Z,98636.25
2023-04-16T03:14:46.006Z,98637.66
2023-04-16T03:17:12.561Z,98642.25
2023-04-16T03:19:39.131Z,98648.53
2023-04-16T03:22:05.700Z,98648.72
2023-04-16T03:24:32.188Z,98652.75
2023-04-16T03:26:58.894Z,98651.91
2023-04-16T03:29:26.671Z,98656.31
2023-04-16T03:31:53.179Z,98656.69
2023-04-16T03:34:19.733Z,98661.56
2023-04-16T03:36:46.321Z,98664.16
2023-04-16T03:39:12.900Z,98657.66
2023-04-16T03:41:39.478Z,98660.47
2023-04-16T03:44:06.215Z,98658.31
2023-04-16T03:46:32.776Z,98661.97
2023-04-16T03:48:59.269Z,98657.00
2023-04-16T03:51:26.403Z,98669.75
2023-04-16T03:53:53.044Z,98668.63
2023-04-16T03:56:19.531Z,98667.94
2023-04-16T03:58:46.109Z,98664.81
2023-04-16T04:01:12.582Z,98671.56
2023-04-16T04:03:39.401Z,98671.16
2023-04-16T04:06:09.583Z,98680.00
2023-04-16T04:08:36.415Z,98673.78
2023-04-16T04:11:02.941Z,98671.16
2023-04-16T04:13:29.387Z,98673.31
2023-04-16T04:15:55.894Z,98678.22
2023-04-16T04:18:22.488Z,98675.41
2023-04-16T04:20:48.996Z,98675.69
2023-04-16T04:23:15.669Z,98676.06
2023-04-16T04:25:42.137Z,98677.44
2023-04-16T04:28:08.653Z,98679.81
2023-04-16T04:30:35.977Z,98679.81
2023-04-16T04:33:02.832Z,98675.84
2023-04-16T04:35:29.393Z,98680.84
2023-04-16T04:37:56.125Z,98676.69
2023-04-16T04:40:22.640Z,98680.38
2023-04-16T04:42:49.215Z,98677.91
2023-04-16T04:45:16.116Z,98677.09
2023-04-16T04:47:42.734Z,98692.94
2023-04-16T04:50:09.843Z,98702.16
2023-04-16T04:52:36.335Z,98690.97
2023-04-16T04:55:02.998Z,98692.84
2023-04-16T04:57:29.447Z,98698.00
2023-04-16T04:59:55.914Z,98694.44
2023-04-16T05:02:22.518Z,98693.13
2023-04-16T05:04:49.101Z,98696.31
2023-04-16T05:07:16.454Z,98699.69
2023-04-16T05:09:42.901Z,98699.69
2023-04-16T05:12:09.335Z,98708.53
2023-04-16T05:14:36.337Z,98708.91
2023-04-16T05:17:02.964Z,98718.31
2023-04-16T05:19:29.684Z,98709.84
2023-04-16T05:21:56.248Z,98718.66
2023-04-16T05:24:23.093Z,98720.75
2023-04-16T05:26:49.617Z,98725.25
2023-04-16T05:29:16.142Z,98724.13
2023-04-16T05:31:42.914Z,98729.94
2023-04-16T05:34:09.362Z,98740.97
2023-04-16T05:36:35.804Z,98729.97
2023-04-16T05:39:02.303Z,98734.03
2023-04-16T05:41:28.939Z,98733.72
2023-04-16T05:43:55.596Z,98740.50
2023-04-16T05:46:22.098Z,98752.41
2023-04-16T05:48:48.650Z,98750.63
2023-04-16T05:51:15.233Z,98748.94
2023-04-16T05:53:41.965Z,98752.16
2023-04-16T05:56:08.651Z,98762.00
2023-04-16T05:58:35.187Z,98754.19
2023-04-16T06:01:01.944Z,98754.78
2023-04-16T06:03:28.544Z,98759.28
2023-04-16T06:05:55.404Z,98761.81
2023-04-16T06:08:22.021Z,98754.28
2023-04-16T06:10:49.101Z,98759.91
2023-04-16T06:13:15.643Z,98755.97
2023-04-16T06:15:42.187Z,98763.41
2023-04-16T06:18:08.784Z,98760.78
2023-04-16T06:20:35.600Z,98763.69
2023-04-16T06:23:02.102Z,98762.00
2023-04-16T06:25:28.595Z,98763.97
2023-04-16T06:27:55.261Z,98760.03
2023-04-16T06:30:21.805Z,98767.63
2023-04-16T06:32:49.821Z,98764.91
2023-04-16T06:35:16.353Z,98763.03
2023-04-16T06:37:42.796Z,98758.50
2023-04-16T06:40:09.793Z,98764.72
2023-04-16T06:42:36.635Z,98760.41
2023-04-16T06:45:03.269Z,98768.00
2023-04-16T06:47:30.170Z,98771.28
2023-04-16T06:49:56.925Z,98774.31
2023-04-16T06:52:23.424Z,98771.59
2023-04-16T06:54:49.869Z,98770.56
2023-04-16T06:57:16.375Z,98775.25
2023-04-16T06:59:43.055Z,98776.09
2023-04-16T07:02:10.774Z,98773.75
2023-04-16T07:04:37.406Z,98772.63
2023-04-16T07:07:03.934Z,98776.06
2023-04-16T07:09:30.539Z,98786.31
2023-04-16T07:11:57.094Z,98780.69
2023-04-16T07:14:23.669Z,98777.84
2023-04-16T07:16:50.289Z,98787.25
2023-04-16T07:19:16.793Z,98783.50
2023-04-16T07:21:43.726Z,98793.38
2023-04-16T07:24:14.043Z,98783.56
2023-04-16T07:26:40.959Z,98777.63
2023-04-16T07:29:07.642Z,98784.13
2023-04-16T07:31:34.289Z,98787.50
2023-04-16T07:34:01.110Z,98780.25
2023-04-16T07:36:28.317Z,98776.50
2023-04-16T07:38:55.874Z,98782.09
2023-04-16T07:41:22.433Z,98786.78
2023-04-16T07:43:48.950Z,98785.88
2023-04-16T07:46:16.094Z,98790.50
2023-04-16T07:48:43.122Z,98800.34
2023-04-16T07:51:09.648Z,98799.94
2023-04-16T07:53:36.207Z,98802.38
2023-04-16T07:56:02.770Z,98806.50
2023-04-16T07:58:29.300Z,98807.56
2023-04-16T08:00:56.187Z,98811.25
2023-04-16T08:03:23.106Z,98811.06
2023-04-16T08:05:49.883Z,98824.75
2023-04-16T08:08:16.378Z,98830.16
2023-04-16T08:10:42.930Z,98827.72
2023-04-16T08:13:09.405Z,98825.44
2023-04-16T08:15:35.995Z,98835.75
2023-04-16T08:18:02.746Z,98844.94
2023-04-16T08:20:29.212Z,98843.44
2023-04-16T08:22:55.718Z,98848.25
2023-04-16T08:25:24.559Z,98844.59
2023-04-16T08:27:51.172Z,98852.75
2023-04-16T08:30:17.772Z,98854.34
2023-04-16T08:32:44.389Z,98853.50
2023-04-16T08:35:10.979Z,98855.31
2023-04-16T08:37:37.575Z,98861.03
2023-04-16T08:40:04.377Z,98863.47
2023-04-16T08:42:37.013Z,98863.50
2023-04-16T08:45:08.999Z,98867.03
2023-04-16T08:47:37.229Z,98867.91
2023-04-16T08:50:05.644Z,98866.78
2023-04-16T08:52:32.667Z,98865.66
2023-04-16T08:55:14.437Z,98864.88
2023-04-16T08:57:59.468Z,98876.66
2023-04-16T09:00:26.625Z,98873.72
2023-04-16T09:02:54.026Z,98873.66
2023-04-16T09:05:25.448Z,98869.44
2023-04-16T09:07:54.569Z,98887.81
2023-04-16T09:10:22.047Z,98886.19
2023-04-16T09:12:48.639Z,98888.22
2023-04-16T09:15:15.156Z,98876.50
2023-04-16T09:17:41.809Z,98884.19
2023-04-16T09:20:10.810Z,98883.03
2023-04-16T09:22:38.672Z,98888.84
2023-04-16T09:25:06.026Z,98890.66
2023-04-16T09:27:32.589Z,98888.31
2023-04-16T09:29:59.480Z,98894.31
2023-04-16T09:32:28.537Z,98894.69
2023-04-16T09:34:57.609Z,98905.34
2023-04-16T09:37:26.685Z,98896.00
2023-04-16T09:40:03.735Z,98913.91
2023-04-16T09:42:36.970Z,98910.63
2023-04-16T09:45:05.699Z,98912.00
2023-04-16T09:47:42.746Z,98913.53
2023-04-16T09:50:17.733Z,98914.31
2023-04-16T09:52:51.485Z,98915.81
2023-04-16T09:55:23.712Z,98928.22
2023-04-16T09:58:00.425Z,98916.91
2023-04-16T10:00:30.598Z,98918.00
2023-04-16T10:03:07.341Z,98922.13
2023-04-16T10:05:34.304Z,98925.00
2023-04-16T10:08:02.044Z,98924.84
2023-04-16T10:10:29.791Z,98934.91
2023-04-16T10:12:56.518Z,98938.38
2023-04-16T10:15:23.262Z,98941.09
2023-04-16T10:17:51.203Z,98939.97
2023-04-16T10:20:18.352Z,98939.94
2023-04-16T10:22:45.442Z,98941.09
2023-04-16T10:25:13.376Z,98941.13
2023-04-16T10:27:41.001Z,98943.06
2023-04-16T10:30:09.320Z,98941.25
2023-04-16T10:32:38.180Z,98940.78
2023-04-16T10:35:05.778Z,98942.00
2023-04-16T10:37:32.650Z,98951.38
2023-04-16T10:40:02.812Z,98956.59
2023-04-16T10:42:29.462Z,98958.16
2023-04-16T10:45:00.167Z,98963.59
2023-04-16T10:47:28.903Z,98960.59
2023-04-16T10:49:55.433Z,98965.50
2023-04-16T10:52:24.464Z,98956.41
2023-04-16T10:54:53.226Z,98960.72
2023-04-16T10:57:20.536Z,98953.56
2023-04-16T10:59:48.926Z,98965.47
2023-04-16T11:02:18.224Z,98961.28
2023-04-16T11:04:47.864Z,98967.94
2023-04-16T11:07:33.227Z,98966.03
2023-04-16T11:10:04.823Z,98972.78
2023-04-16T11:12:50.873Z,98969.56
2023-04-16T11:15:19.509Z,98959.59
2023-04-16T11:17:51.723Z,98958.28
2023-04-16T11:20:24.682Z,98959.03
2023-04-16T11:22:54.541Z,98954.66
2023-04-16T11:25:23.499Z,98960.19
2023-04-16T11:27:52.007Z,98954.25
2023-04-16T11:30:31.686Z,98943.91
2023-04-16T11:32:58.247Z,98958.72
2023-04-16T11:35:25.123Z,98955.97
2023-04-16T11:37:57.805Z,98955.22
2023-04-16T11:40:26.100Z,98954.00
2023-04-16T11:42:52.613Z,98959.13
2023-04-16T11:45:19.471Z,98952.34
2023-04-16T11:47:53.379Z,98957.16
2023-04-16T11:50:23.558Z,98952.34
2023-04-16T11:52:52.603Z,98953.94
2023-04-16T11:55:20.813Z,98964.19
2023-04-16T11:57:47.846Z,98952.75
2023-04-16T12:00:15.324Z,98964.38
2023-04-16T12:02:51.310Z,98965.50
2023-04-16T12:05:39.505Z,98960.66
2023-04-16T12:08:11.606Z,98960.59
2023-04-16T12:10:54.882Z,98959.81
2023-04-16T12:13:21.618Z,98962.78
2023-04-16T12:15:56.981Z,98962.56
2023-04-16T12:18:27.058Z,98969.94
2023-04-16T12:20:53.968Z,98964.44
2023-04-16T12:23:29.753Z,98955.75
2023-04-16T12:26:02.188Z,98960.53
2023-04-16T12:28:34.232Z,98972.03
2023-04-16T12:31:02.282Z,98961.69
2023-04-16T12:33:29.647Z,98960.44
2023-04-16T12:35:56.600Z,98970.81
2023-04-16T12:38:24.726Z,98973.59
2023-04-16T12:40:51.711Z,98979.25
2023-04-16T12:43:19.635Z,98968.69
2023-04-16T12:45:46.384Z,98975.63
2023-04-16T12:48:12.894Z,98977.94
2023-04-16T12:50:44.169Z,98975.00
2023-04-16T12:53:11.720Z,98969.97
2023-04-16T12:55:38.286Z,98962.00
2023-04-16T12:58:04.780Z,98962.16
2023-04-16T13:00:31.325Z,98961.25
2023-04-16T13:02:57.903Z,98964.56
2023-04-16T13:05:24.481Z,98954.00
2023-04-16T13:07:51.023Z,98969.38
2023-04-16T13:10:17.647Z,98963.72
2023-04-16T13:12:44.136Z,98957.78
2023-04-16T13:15:11.032Z,98964.56
2023-04-16T13:17:37.590Z,98968.78
2023-04-16T13:20:04.604Z,98967.69
2023-04-16T13:22:31.141Z,98961.47
2023-04-16T13:24:57.711Z,98963.50
2023-04-16T13:27:24.322Z,98966.25
2023-04-16T13:29:50.812Z,98967.84
2023-04-16T13:32:18.790Z,98976.78
2023-04-16T13:34:45.491Z,98973.97
2023-04-16T13:37:11.945Z,98967.31
2023-04-16T13:39:38.461Z,98977.56
2023-04-16T13:42:05.106Z,98983.06
2023-04-16T13:44:31.608Z,98991.81
2023-04-16T13:46:58.860Z,98997.66
2023-04-16T13:49:25.631Z,98997.22
2023-04-16T13:51:52.095Z,98991.13
2023-04-16T13:54:18.590Z,98984.22
2023-04-16T13:56:45.271Z,98990.88
2023-04-16T13:59:11.883Z,98994.47
2023-04-16T14:01:38.462Z,98988.34
2023-04-16T14:04:06.834Z,98988.94
2023-04-16T14:06:34.649Z,98997.09
2023-04-16T14:09:01.856Z,98994.50
2023-04-16T14:11:28.880Z,98997.69
2023-04-16T14:13:55.814Z,98996.41
2023-04-16T14:16:22.391Z,98987.50
2023-04-16T14:18:49.034Z,98986.34
2023-04-16T14:21:15.637Z,98985.91
2023-04-16T14:23:42.109Z,98988.53
2023-04-16T14:26:08.578Z,98988.06
2023-04-16T14:28:35.650Z,98993.03
2023-04-16T14:31:02.250Z,98987.25
2023-04-16T14:33:28.890Z,98995.56
2023-04-16T14:35:55.455Z,98989.84
2023-04-16T14:38:22.021Z,98980.50
2023-04-16T14:40:48.783Z,99002.63
2023-04-16T14:43:15.407Z,99002.56
2023-04-16T14:45:41.950Z,99001.59
2023-04-16T14:48:08.599Z,98991.00
2023-04-16T14:50:38.859Z,98989.78
2023-04-16T14:53:05.865Z,98993.16
2023-04-16T14:55:32.610Z,98986.53
2023-04-16T14:57:59.702Z,98992.09
2023-04-16T15:00:27.226Z,98990.44
2023-04-16T15:02:55.561Z,98992.13
2023-04-16T15:05:22.309Z,98995.91
2023-04-16T15:07:48.912Z,98994.66
2023-04-16T15:10:15.473Z,98985.19
2023-04-16T15:12:42.030Z,98999.34
2023-04-16T15:15:09.459Z,98991.00
2023-04-16T15:17:36.379Z,98991.53
2023-04-16T15:20:05.842Z,98999.97
2023-04-16T15:22:32.316Z,98992.97
2023-04-16T15:24:58.802Z,99001.22
2023-04-16T15:27:25.542Z,98996.56
2023-04-16T15:29:53.801Z,98997.00
2023-04-16T15:32:20.325Z,98995.31
2023-04-16T15:34:46.836Z,98989.59
2023-04-16T15:37:13.399Z,98997.63
2023-04-16T15:39:40.023Z,99005.63
2023-04-16T15:42:07.617Z,99006.06
2023-04-16T15:44:34.758Z,99001.84
2023-04-16T15:47:01.293Z,98997.22
2023-04-16T15:49:28.001Z,99006.41
2023-04-16T15:51:55.641Z,99004.94
2023-04-16T15:54:22.231Z,99006.22
2023-04-16T15:56:48.832Z,99007.66
2023-04-16T15:59:15.432Z,98998.16
2023-04-16T16:01:41.958Z,99004.41
2023-04-16T16:04:08.870Z,98997.44
2023-04-16T16:06:37.821Z,99009.50
2023-04-16T16:09:04.902Z,99001.25
2023-04-16T16:11:32.348Z,99010.44
2023-04-16T16:14:01.031Z,99005.69
2023-04-16T16:16:28.665Z,99012.88
2023-04-16T16:18:55.569Z,99009.38
2023-04-16T16:21:22.036Z,99012.00
2023-04-16T16:23:48.564Z,99017.94
2023-04-16T16:26:15.105Z,99014.47
2023-04-16T16:28:43.772Z,99024.00
2023-04-16T16:31:12.129Z,99010.88
2023-04-16T16:33:40.387Z,99018.28
2023-04-16T16:36:11.196Z,99018.75
2023-04-16T16:38:39.927Z,99021.72
2023-04-16T16:41:07.150Z,99014.44
2023-04-16T16:43:35.815Z,99015.41
2023-04-16T16:46:02.369Z,99018.06
2023-04-16T16:48:29.139Z,99026.81
2023-04-16T16:50:55.880Z,99021.22
2023-04-16T16:53:22.388Z,99021.75
2023-04-16T16:55:48.864Z,99018.81
2023-04-16T16:58:15.403Z,99026.53
2023-04-16T17:00:42.011Z,99027.19
2023-04-16T17:03:09.381Z,99027.28
2023-04-16T17:05:36.655Z,99028.97
2023-04-16T17:08:03.269Z,99019.53
2023-04-16T17:10:29.776Z,99017.19
2023-04-16T17:12:56.247Z,99022.56
2023-04-16T17:15:23.046Z,99022.97
2023-04-16T17:17:49.646Z,99034.31
2023-04-16T17:20:16.214Z,99030.31
2023-04-16T17:22:42.869Z,99035.50
2023-04-16T17:25:10.068Z,99034.31
2023-04-16T17:27:36.694Z,99035.84
2023-04-16T17:30:05.264Z,99038.25
2023-04-16T17:32:33.025Z,99027.47
2023-04-16T17:35:03.833Z,99032.88
2023-04-16T17:37:30.354Z,99035.00
2023-04-16T17:39:56.870Z,99039.41
2023-04-16T17:42:24.470Z,99040.34
2023-04-16T17:44:51.010Z,99041.03
2023-04-16T17:47:17.464Z,99046.50
2023-04-16T17:49:44.330Z,99047.66
2023-04-16T17:52:10.861Z,99046.19
2023-04-16T17:54:37.350Z,99048.69
2023-04-16T17:57:04.008Z,99052.91
2023-04-16T17:59:30.502Z,99048.97
2023-04-16T18:01:57.206Z,99055.34
2023-04-16T18:04:23.966Z,99055.84
2023-04-16T18:06:50.751Z,99060.69
2023-04-16T18:09:18.967Z,99066.28
2023-04-16T18:11:45.538Z,99068.41
2023-04-16T18:14:14.020Z,99068.19
2023-04-16T18:16:41.744Z,99064.59
2023-04-16T18:19:08.481Z,99067.94
2023-04-16T18:21:35.637Z,99069.56
2023-04-16T18:24:03.344Z,99081.06
2023-04-16T18:26:30.097Z,99075.31
2023-04-16T18:28:56.928Z,99079.63
2023-04-16T18:31:23.510Z,99080.09
2023-04-16T18:33:57.244Z,99085.84
2023-04-16T18:36:26.528Z,99085.66
2023-04-16T18:39:01.502Z,99088.00
2023-04-16T18:41:30.426Z,99088.91
2023-04-16T18:43:57.336Z,99088.84
2023-04-16T18:46:24.108Z,99098.16
2023-04-16T18:48:50.866Z,99096.34
2023-04-16T18:51:17.407Z,99094.59
2023-04-16T18:53:45.695Z,99093.78
2023-04-16T18:56:12.850Z,99098.97
2023-04-16T18:58:39.554Z,99102.94
2023-04-16T19:01:10.758Z,99098.13
2023-04-16T19:03:37.976Z,99104.50
2023-04-16T19:06:07.878Z,99102.53
2023-04-16T19:08:34.323Z,99101.75
2023-04-16T19:11:00.918Z,99102.88
2023-04-16T19:13:27.453Z,99103.47
2023-04-16T19:16:00.982Z,99108.53
2023-04-16T19:18:27.713Z,99103.53
2023-04-16T19:21:01.120Z,99103.84
2023-04-16T19:23:28.890Z,99106.09
2023-04-16T19:25:59.152Z,99104.06
2023-04-16T19:28:26.183Z,99105.56
2023-04-16T19:30:53.889Z,99107.91
2023-04-16T19:33:20.649Z,99108.03
2023-04-16T19:35:47.581Z,99109.53
2023-04-16T19:38:14.415Z,99107.25
2023-04-16T19:40:45.327Z,99099.72
2023-04-16T19:43:12.141Z,99103.88
2023-04-16T19:45:53.301Z,99106.50
2023-04-16T19:48:21.343Z,99104.34
2023-04-16T19:50:48.247Z,99107.94
2023-04-16T19:53:16.808Z,99107.56
2023-04-16T19:55:43.336Z,99099.88
2023-04-16T19:58:09.918Z,99103.47
2023-04-16T20:00:40.636Z,99100.63
2023-04-16T20:03:07.201Z,99107.41
2023-04-16T20:05:33.875Z,99106.94
2023-04-16T20:08:00.510Z,99110.81
2023-04-16T20:10:27.703Z,99106.28
2023-04-16T20:12:54.216Z,99113.72
2023-04-16T20:15:20.828Z,99115.56
2023-04-16T20:17:47.458Z,99113.97
2023-04-16T20:20:15.587Z,99118.66
2023-04-16T20:22:43.295Z,99110.94
2023-04-16T20:25:10.157Z,99111.38
2023-04-16T20:27:36.756Z,99110.47
2023-04-16T20:30:05.312Z,99114.13
2023-04-16T20:32:31.863Z,99107.81
2023-04-16T20:34:58.400Z,99111.97
2023-04-16T20:37:24.944Z,99106.34
2023-04-16T20:39:53.988Z,99108.13
2023-04-16T20:42:21.937Z,99110.28
2023-04-16T20:44:56.170Z,99107.56
2023-04-16T20:47:22.977Z,99113.13
2023-04-16T20:49:49.619Z,99108.06
2023-04-16T20:52:16.724Z,99103.88
2023-04-16T20:54:43.269Z,99100.34
2023-04-16T20:57:09.856Z,99104.41
2023-04-16T20:59:36.919Z,99091.03
2023-04-16T21:02:03.682Z,99101.19
2023-04-16T21:04:30.412Z,99099.59
2023-04-16T21:06:57.091Z,99100.34
2023-04-16T21:09:23.726Z,99102.69
2023-04-16T21:11:50.235Z,99099.41
2023-04-16T21:14:16.675Z,99096.38
2023-04-16T21:16:43.117Z,99099.03
2023-04-16T21:19:09.893Z,99100.63
2023-04-16T21:21:38.162Z,99101.47
2023-04-16T21:24:05.024Z,99091.03
2023-04-16T21:26:31.536Z,99094.19
2023-04-16T21:28:58.072Z,99098.84
2023-04-16T21:31:24.615Z,99103.03
2023-04-16T21:33:51.132Z,99102.31
2023-04-16T21:36:17.659Z,99097.31
2023-04-16T21:38:44.188Z,99102.31
2023-04-16T21:41:10.724Z,99100.41
2023-04-16T21:43:37.240Z,99095.16
2023-04-16T21:46:03.886Z,99094.03
2023-04-16T21:48:30.496Z,99095.91
2023-04-16T21:51:06.286Z,99093.88
2023-04-16T21:53:33.468Z,99092.97
2023-04-16T21:55:59.999Z,99092.50
2023-04-16T21:58:26.583Z,99093.41
2023-04-16T22:00:53.219Z,99090.31
2023-04-16T22:03:26.095Z,99093.69
2023-04-16T22:06:03.175Z,99092.50
2023-04-16T22:08:30.212Z,99094.84
2023-04-16T22:11:02.128Z,99090.88
2023-04-16T22:13:32.328Z,99093.41
2023-04-16T22:16:03.178Z,99091.84
2023-04-16T22:18:33.517Z,99090.78
2023-04-16T22:21:00.904Z,99094.19
2023-04-16T22:23:27.566Z,99095.66
2023-04-16T22:25:56.026Z,99094.06
2023-04-16T22:28:23.261Z,99093.13
2023-04-16T22:30:51.070Z,99091.53
2023-04-16T22:33:17.634Z,99096.44
2023-04-16T22:35:44.417Z,99093.69
2023-04-16T22:38:10.914Z,99092.09
2023-04-16T22:40:37.497Z,99092.84
2023-04-16T22:43:04.653Z,99097.44
2023-04-16T22:45:31.204Z,99094.31
2023-04-16T22:47:57.753Z,99094.25
2023-04-16T22:50:24.253Z,99094.09
2023-04-16T22:52:50.857Z,99089.22
2023-04-16T22:55:17.350Z,99087.88
2023-04-16T22:57:43.868Z,99093.13
2023-04-16T23:00:15.682Z,99085.56
2023-04-16T23:02:42.913Z,99085.81
2023-04-16T23:05:09.543Z,99095.06
2023-04-16T23:07:36.068Z,99090.44
2023-04-16T23:10:03.085Z,99088.75
2023-04-16T23:12:29.580Z,99094.16
2023-04-16T23:14:56.284Z,99090.22
2023-04-16T23:17:22.918Z,99086.88
2023-04-16T23:19:49.469Z,99090.78
2023-04-16T23:22:15.948Z,99088.44
2023-04-16T23:24:42.409Z,99096.72
2023-04-16T23:27:08.856Z,99094.47
2023-04-16T23:29:35.336Z,99093.63
2023-04-16T23:32:01.804Z,99089.72
2023-04-16T23:34:28.288Z,99085.28
2023-04-16T23:36:54.733Z,99080.59
2023-04-16T23:39:21.219Z,99082.09
2023-04-16T23:41:47.795Z,99079.28
2023-04-16T23:44:14.268Z,99079.47
2023-04-16T23:46:40.911Z,99085.50
2023-04-16T23:49:07.683Z,99079.19
2023-04-16T23:51:34.263Z,99085.13
2023-04-16T23:54:00.721Z,99083.38
2023-04-16T23:56:27.242Z,99082.09
2023-04-16T23:58:53.692Z,99082.44
